createdAt,value
2022-12-15T00:03:08.051Z,97868.66
2022-12-15T00:08:29.327Z,97867.06
2022-12-15T00:13:50.810Z,97861.69
2022-12-15T00:19:11.263Z,97860.94
2022-12-15T00:24:31.908Z,97862.22
2022-12-15T00:29:53.792Z,97854.28
2022-12-15T00:35:13.982Z,97861.25
2022-12-15T00:40:16.969Z,97871.47
2022-12-15T00:45:21.232Z,97865.25
2022-12-15T00:50:41.583Z,97878.81
2022-12-15T00:56:01.921Z,97894.88
2022-12-15T01:01:26.721Z,97878.59
2022-12-15T01:06:47.281Z,97880.25
2022-12-15T01:12:07.752Z,97897.44
2022-12-15T01:17:29.900Z,97902.72
2022-12-15T01:22:32.864Z,97910.97
2022-12-15T01:27:36.087Z,97919.16
2022-12-15T01:32:45.846Z,97930.53
2022-12-15T01:37:50.277Z,97927.63
2022-12-15T01:42:53.846Z,97935.22
2022-12-15T01:48:01.760Z,97947.31
2022-12-15T01:53:04.843Z,97944.66
2022-12-15T01:58:10.307Z,97950.09
2022-12-15T02:03:15.173Z,97965.75
2022-12-15T02:08:18.277Z,97966.63
2022-12-15T02:13:29.416Z,97968.22
2022-12-15T02:18:42.553Z,97984.31
2022-12-15T02:24:19.859Z,97976.91
2022-12-15T02:29:54.602Z,97976.75
2022-12-15T02:35:03.868Z,97977.72
2022-12-15T02:40:11.863Z,97983.03
2022-12-15T02:45:20.667Z,97977.06
2022-12-15T02:50:43.287Z,97992.00
2022-12-15T02:55:54.032Z,97996.69
2022-12-15T03:01:02.461Z,98006.66
2022-12-15T03:06:07.254Z,98006.28
2022-12-15T03:11:10.242Z,98012.66
2022-12-15T03:16:13.536Z,98013.19
2022-12-15T03:21:17.848Z,98020.84
2022-12-15T03:26:20.818Z,98034.16
2022-12-15T03:31:23.828Z,98043.16
2022-12-15T03:36:28.153Z,98043.50
2022-12-15T03:41:31.055Z,98049.25
2022-12-15T03:46:34.016Z,98048.19
2022-12-15T03:51:38.324Z,98056.16
2022-12-15T03:56:41.331Z,98055.16
2022-12-15T04:01:48.349Z,98062.06
2022-12-15T04:06:52.726Z,98063.47
2022-12-15T04:11:55.644Z,98074.31
2022-12-15T04:16:58.846Z,98092.22
2022-12-15T04:22:04.652Z,98097.47
2022-12-15T04:27:25.109Z,98103.06
2022-12-15T04:32:45.619Z,98110.97
2022-12-15T04:38:11.983Z,98112.94
2022-12-15T04:43:32.564Z,98116.78
2022-12-15T04:48:52.991Z,98125.72
2022-12-15T04:54:14.622Z,98136.50
2022-12-15T04:59:35.108Z,98130.97
2022-12-15T05:04:55.322Z,98145.91
2022-12-15T05:10:16.996Z,98149.03
2022-12-15T05:15:37.524Z,98153.00
2022-12-15T05:20:58.136Z,98159.00
2022-12-15T05:26:19.871Z,98168.97
2022-12-15T05:31:40.063Z,98175.81
2022-12-15T05:36:43.018Z,98173.38
2022-12-15T05:41:47.390Z,98186.66
2022-12-15T05:46:50.419Z,98189.59
2022-12-15T05:51:53.406Z,98200.78
2022-12-15T05:56:57.642Z,98209.88
2022-12-15T06:02:00.620Z,98222.00
2022-12-15T06:07:03.599Z,98214.41
2022-12-15T06:12:08.128Z,98215.69
2022-12-15T06:17:11.064Z,98225.66
2022-12-15T06:22:13.985Z,98232.16
2022-12-15T06:27:18.250Z,98241.53
2022-12-15T06:32:21.987Z,98236.06
2022-12-15T06:37:24.903Z,98248.00
2022-12-15T06:42:29.147Z,98270.19
2022-12-15T06:47:32.007Z,98265.34
2022-12-15T06:52:34.915Z,98290.44
2022-12-15T06:57:39.833Z,98285.09
2022-12-15T07:02:43.256Z,98278.41
2022-12-15T07:07:53.362Z,98283.09
2022-12-15T07:12:58.739Z,98296.94
2022-12-15T07:18:01.881Z,98307.38
2022-12-15T07:23:07.995Z,98313.06
2022-12-15T07:28:12.531Z,98319.97
2022-12-15T07:33:15.942Z,98314.16
2022-12-15T07:38:18.862Z,98317.44
2022-12-15T07:43:24.077Z,98322.63
2022-12-15T07:48:27.447Z,98338.03
2022-12-15T07:53:30.914Z,98337.69
2022-12-15T07:58:35.627Z,98357.94
2022-12-15T08:03:39.428Z,98356.22
2022-12-15T08:08:44.649Z,98355.88
2022-12-15T08:14:02.579Z,98358.06
2022-12-15T08:19:06.787Z,98336.38
2022-12-15T08:24:10.664Z,98357.31
2022-12-15T08:29:49.518Z,98373.34
2022-12-15T08:34:39.955Z,98369.66
2022-12-15T08:39:42.953Z,98373.13
2022-12-15T08:44:49.770Z,98390.25
2022-12-15T08:49:54.077Z,98390.84
2022-12-15T08:54:56.932Z,98374.38
2022-12-15T09:00:01.397Z,98373.75
2022-12-15T09:05:06.247Z,98376.84
2022-12-15T09:10:09.840Z,98375.31
2022-12-15T09:15:14.614Z,98381.22
2022-12-15T09:20:18.194Z,98383.13
2022-12-15T09:25:21.194Z,98386.81
2022-12-15T09:30:25.711Z,98395.31
2022-12-15T09:35:28.990Z,98387.91
2022-12-15T09:40:33.409Z,98398.53
2022-12-15T09:45:44.388Z,98395.88
2022-12-15T09:50:49.567Z,98393.44
2022-12-15T09:56:03.532Z,98380.38
2022-12-15T10:01:19.520Z,98397.78
2022-12-15T10:06:33.308Z,98400.84
2022-12-15T10:11:50.551Z,98413.53
2022-12-15T10:17:03.988Z,98419.94
2022-12-15T10:22:11.525Z,98421.56
2022-12-15T10:27:25.637Z,98416.13
2022-12-15T10:32:42.632Z,98422.28
2022-12-15T10:37:45.884Z,98436.00
2022-12-15T10:42:51.548Z,98437.09
2022-12-15T10:48:02.518Z,98435.38
2022-12-15T10:53:10.076Z,98432.75
2022-12-15T10:58:18.894Z,98431.72
2022-12-15T11:03:26.239Z,98432.09
2022-12-15T11:08:31.270Z,98435.06
2022-12-15T11:19:08.046Z,98428.09
2022-12-15T11:24:16.089Z,98437.84
2022-12-15T11:29:34.778Z,98432.03
2022-12-15T11:34:42.917Z,98440.09
2022-12-15T11:40:02.192Z,98432.19
2022-12-15T11:45:09.968Z,98437.09
2022-12-15T11:50:30.510Z,98435.25
2022-12-15T11:55:44.296Z,98436.63
2022-12-15T12:00:55.936Z,98427.16
2022-12-15T12:06:08.538Z,98418.88
2022-12-15T12:11:15.684Z,98426.69
2022-12-15T12:16:33.185Z,98421.25
2022-12-15T12:21:41.720Z,98422.50
2022-12-15T12:26:48.533Z,98410.75
2022-12-15T12:32:05.190Z,98414.16
2022-12-15T12:37:18.035Z,98400.94
2022-12-15T12:42:27.297Z,98407.00
2022-12-15T12:47:34.518Z,98410.34
2022-12-15T12:52:39.161Z,98409.16
2022-12-15T12:57:45.516Z,98419.94
2022-12-15T13:03:10.124Z,98417.50
2022-12-15T13:08:52.019Z,98412.66
2022-12-15T13:13:56.652Z,98407.66
2022-12-15T13:19:05.259Z,98413.19
2022-12-15T13:24:23.083Z,98419.81
2022-12-15T13:29:27.526Z,98403.88
2022-12-15T13:34:36.875Z,98416.00
2022-12-15T13:39:58.861Z,98411.13
2022-12-15T13:45:29.941Z,98425.94
2022-12-15T13:50:40.359Z,98429.75
2022-12-15T13:55:56.793Z,98436.28
2022-12-15T14:01:01.117Z,98436.97
2022-12-15T14:06:04.096Z,98450.94
2022-12-15T14:11:29.424Z,98456.88
2022-12-15T14:16:35.242Z,98458.28
2022-12-15T14:21:38.335Z,98449.69
2022-12-15T14:26:42.688Z,98441.28
2022-12-15T14:31:51.231Z,98445.19
2022-12-15T14:36:57.150Z,98443.03
2022-12-15T14:42:02.171Z,98447.75
2022-12-15T14:47:09.427Z,98463.94
2022-12-15T14:52:28.675Z,98447.28
2022-12-15T14:57:42.449Z,98458.19
2022-12-15T15:02:46.913Z,98447.72
2022-12-15T15:03:13.684Z,98427.84
2022-12-15T15:07:56.683Z,98442.97
2022-12-15T15:13:00.127Z,98432.28
2022-12-15T15:18:04.560Z,98441.06
2022-12-15T15:23:17.704Z,98440.19
2022-12-15T15:28:25.962Z,98446.72
2022-12-15T15:33:30.283Z,98441.59
2022-12-15T15:38:36.985Z,98451.13
2022-12-15T15:43:39.998Z,98445.53
2022-12-15T15:48:47.859Z,98450.34
2022-12-15T15:53:50.872Z,98451.41
2022-12-15T15:58:53.892Z,98455.13
2022-12-15T16:03:58.370Z,98447.72
2022-12-15T16:09:01.426Z,98465.34
2022-12-15T16:14:04.739Z,98463.13
2022-12-15T16:19:09.247Z,98474.50
2022-12-15T16:24:17.049Z,98478.31
2022-12-15T16:29:21.896Z,98489.53
2022-12-15T16:34:26.247Z,98489.91
2022-12-15T16:39:32.135Z,98478.31
2022-12-15T16:44:35.038Z,98487.69
2022-12-15T16:49:40.487Z,98489.09
2022-12-15T16:54:46.291Z,98501.69
2022-12-15T16:59:49.812Z,98501.25
2022-12-15T17:04:55.234Z,98492.91
2022-12-15T17:09:58.345Z,98490.56
2022-12-15T17:15:02.429Z,98498.44
2022-12-15T17:26:09.371Z,98499.31
2022-12-15T17:30:59.453Z,98489.69
2022-12-15T17:36:11.746Z,98491.44
2022-12-15T17:41:42.304Z,98485.41
2022-12-15T17:46:38.611Z,98493.56
2022-12-15T17:51:43.906Z,98489.06
2022-12-15T17:56:49.206Z,98496.63
2022-12-15T18:01:52.221Z,98486.97
2022-12-15T18:07:01.465Z,98487.03
2022-12-15T18:12:11.961Z,98474.53
2022-12-15T18:17:14.988Z,98453.56
2022-12-15T18:27:29.632Z,98467.75
2022-12-15T18:32:38.217Z,98473.22
2022-12-15T18:37:41.255Z,98496.50
2022-12-15T18:42:47.125Z,98488.84
2022-12-15T18:47:50.828Z,98484.44
2022-12-15T18:52:58.918Z,98473.34
2022-12-15T18:58:03.286Z,98483.91
2022-12-15T19:03:06.672Z,98468.84
2022-12-15T19:08:14.030Z,98472.06
2022-12-15T19:13:20.929Z,98470.66
2022-12-15T19:18:42.539Z,98476.38
2022-12-15T19:23:45.537Z,98462.09
2022-12-15T19:28:49.776Z,98464.63
2022-12-15T19:33:52.656Z,98466.03
2022-12-15T19:38:56.600Z,98468.31
2022-12-15T19:44:01.013Z,98463.22
2022-12-15T19:49:03.962Z,98458.13
2022-12-15T19:54:07.853Z,98465.53
2022-12-15T19:59:20.421Z,98466.94
2022-12-15T20:04:24.499Z,98457.41
2022-12-15T20:09:27.628Z,98465.41
2022-12-15T20:14:32.295Z,98452.66
2022-12-15T20:19:35.231Z,98458.94
2022-12-15T20:24:38.147Z,98449.53
2022-12-15T20:29:42.420Z,98441.41
2022-12-15T20:34:45.855Z,98434.16
2022-12-15T20:39:53.930Z,98435.56
2022-12-15T20:45:01.373Z,98411.81
2022-12-15T20:50:04.751Z,98404.81
2022-12-15T20:55:11.503Z,98406.59
2022-12-15T21:00:18.000Z,98393.34
2022-12-15T21:05:23.426Z,98390.00
2022-12-15T21:10:28.250Z,98393.56
2022-12-15T21:15:32.557Z,98393.97
2022-12-15T21:20:35.485Z,98394.84
2022-12-15T21:25:38.519Z,98395.72
2022-12-15T21:30:43.105Z,98383.09
2022-12-15T21:35:48.455Z,98378.00
2022-12-15T21:40:57.673Z,98371.56
2022-12-15T21:46:12.546Z,98385.91
2022-12-15T21:51:16.923Z,98372.59
2022-12-15T21:56:22.315Z,98374.75
2022-12-15T22:01:30.351Z,98379.00
2022-12-15T22:06:33.351Z,98381.72
2022-12-15T22:11:36.258Z,98382.31
2022-12-15T22:16:40.577Z,98382.13
2022-12-15T22:21:43.521Z,98397.78
2022-12-15T22:26:46.499Z,98402.63
2022-12-15T22:31:51.882Z,98400.03
2022-12-15T22:36:55.140Z,98393.06
2022-12-15T22:41:58.513Z,98383.56
2022-12-15T22:47:04.657Z,98407.47
2022-12-15T22:52:16.491Z,98405.03
2022-12-15T22:57:22.624Z,98403.88
2022-12-15T23:02:27.318Z,98402.59
2022-12-15T23:07:30.291Z,98405.59
2022-12-15T23:12:33.163Z,98416.19
2022-12-15T23:17:37.473Z,98415.81
2022-12-15T23:22:40.383Z,98396.75
2022-12-15T23:27:43.333Z,98385.88
2022-12-15T23:32:47.632Z,98371.19
2022-12-15T23:37:50.930Z,98369.78
2022-12-15T23:42:53.839Z,98362.97
2022-12-15T23:47:59.522Z,98368.78
2022-12-15T23:53:02.684Z,98363.25
2022-12-15T23:58:05.575Z,98372.97
